63NY weather

Shear Airport
Ransomville, New York, United States

Public forecast

Using degrees Fahrenheit for public forecast. Weather courtesy of forecast.io.

METAR (pilot weather report)

Closest report is Niagara Falls International Airport, 9.3 nm (17.2 km) S. Retrieved 2019/05/21 04:23 UTC (0 seconds ago):

KIAG 210423Z AUTO 30010KT 10SM FEW027 OVC055 08/03 A3003 RMK AO2 T00780033

TAF (pilot weather forecast)

Forecast is more than 12 hours old.

Closest forecast is Niagara Falls International Airport, 9.3 nm (17.2 km) S. Retrieved 2019/05/20 00:36 UTC (1 day ago):

TAF KIAG 202334Z 2100/2124 28016G23KT P6SM BKN030 FM210600 29012KT P6SM BKN050 FM210800 27008KT P6SM SCT250 FM211400 30010G16KT P6SM FEW250